createdAt,value
2023-05-19T00:00:00.393Z,31.46
2023-05-19T00:01:00.478Z,31.46
2023-05-19T00:02:00.507Z,31.44
2023-05-19T00:03:00.651Z,31.46
2023-05-19T00:04:00.569Z,31.46
2023-05-19T00:05:00.617Z,31.49
2023-05-19T00:06:00.771Z,31.48
2023-05-19T00:07:00.756Z,31.48
2023-05-19T00:08:00.832Z,31.48
2023-05-19T00:09:00.872Z,31.48
2023-05-19T00:10:00.924Z,31.47
2023-05-19T00:11:00.995Z,31.48
2023-05-19T00:12:01.070Z,31.51
2023-05-19T00:13:01.108Z,31.50
2023-05-19T00:14:01.171Z,31.49
2023-05-19T00:15:01.273Z,31.49
2023-05-19T00:16:01.326Z,31.48
2023-05-19T00:17:01.353Z,31.50
2023-05-19T00:18:01.411Z,31.51
2023-05-19T00:19:01.499Z,31.51
2023-05-19T00:20:01.530Z,31.52
2023-05-19T00:21:01.619Z,31.50
2023-05-19T00:22:01.641Z,31.52
2023-05-19T00:23:01.697Z,31.50
2023-05-19T00:24:01.747Z,31.53
2023-05-19T00:25:01.848Z,31.53
2023-05-19T00:26:01.981Z,31.52
2023-05-19T00:27:01.945Z,31.53
2023-05-19T00:28:02.003Z,31.56
2023-05-19T00:29:02.062Z,31.56
2023-05-19T00:30:02.150Z,31.53
2023-05-19T00:31:02.181Z,31.58
2023-05-19T00:32:02.284Z,31.56
2023-05-19T00:33:02.380Z,31.58
2023-05-19T00:34:02.384Z,31.57
2023-05-19T00:35:02.446Z,31.60
2023-05-19T00:36:02.482Z,31.59
2023-05-19T00:37:02.551Z,31.59
2023-05-19T00:38:02.604Z,31.58
2023-05-19T00:39:02.679Z,31.60
2023-05-19T00:40:02.741Z,31.60
2023-05-19T00:41:02.797Z,31.61
2023-05-19T00:42:02.955Z,31.60
2023-05-19T00:43:02.931Z,31.63
2023-05-19T00:44:03.009Z,31.63
2023-05-19T00:45:03.037Z,31.64
2023-05-19T00:46:03.122Z,31.65
2023-05-19T00:47:03.221Z,31.66
2023-05-19T00:48:03.301Z,31.66
2023-05-19T00:49:03.278Z,31.65
2023-05-19T00:50:03.336Z,31.65
2023-05-19T00:51:03.422Z,31.66
2023-05-19T00:52:03.473Z,31.65
2023-05-19T00:53:03.545Z,31.66
2023-05-19T00:54:03.590Z,31.66
2023-05-19T00:55:03.635Z,31.68
2023-05-19T00:56:03.714Z,31.65
2023-05-19T00:57:03.761Z,31.65
2023-05-19T00:58:03.846Z,31.70
2023-05-19T00:59:03.899Z,31.69
2023-05-19T01:00:03.960Z,31.68
2023-05-19T01:01:04.820Z,31.70
2023-05-19T01:02:04.085Z,31.71
2023-05-19T01:03:04.202Z,31.70
2023-05-19T01:04:04.338Z,31.69
2023-05-19T01:05:04.271Z,31.71
2023-05-19T01:06:04.321Z,31.71
2023-05-19T01:07:04.382Z,31.73
2023-05-19T01:08:04.444Z,31.70
2023-05-19T01:09:04.480Z,31.74
2023-05-19T01:10:04.552Z,31.71
2023-05-19T01:11:04.636Z,31.71
2023-05-19T01:12:04.680Z,31.72
2023-05-19T01:13:04.743Z,31.73
2023-05-19T01:14:04.800Z,31.74
2023-05-19T01:15:04.857Z,31.75
2023-05-19T01:16:04.949Z,31.74
2023-05-19T01:17:04.986Z,31.75
2023-05-19T01:18:05.123Z,31.76
2023-05-19T01:19:05.132Z,31.78
2023-05-19T01:20:05.141Z,31.78
2023-05-19T01:21:05.207Z,31.78
2023-05-19T01:22:05.266Z,31.78
2023-05-19T01:23:05.339Z,31.80
2023-05-19T01:24:05.397Z,31.78
2023-05-19T01:25:05.452Z,31.83
2023-05-19T01:26:05.510Z,31.85
2023-05-19T01:27:05.667Z,31.84
2023-05-19T01:28:05.602Z,31.83
2023-05-19T01:29:05.679Z,31.84
2023-05-19T01:30:05.736Z,31.83
2023-05-19T01:31:05.778Z,31.87
2023-05-19T01:32:05.993Z,31.85
2023-05-19T01:33:05.927Z,31.87
2023-05-19T01:34:05.959Z,31.86
2023-05-19T01:35:06.019Z,31.86
2023-05-19T01:36:06.077Z,31.87
2023-05-19T01:37:06.150Z,31.88
2023-05-19T01:38:06.217Z,31.89
2023-05-19T01:39:06.252Z,31.87
2023-05-19T01:40:06.300Z,31.88
2023-05-19T01:41:06.384Z,31.88
2023-05-19T01:42:06.446Z,31.89
2023-05-19T01:43:06.500Z,31.90
2023-05-19T01:44:06.553Z,31.90
2023-05-19T01:45:06.620Z,31.92
2023-05-19T01:46:06.730Z,31.93
2023-05-19T01:47:06.730Z,31.91
2023-05-19T01:48:08.410Z,31.91
2023-05-19T01:49:06.845Z,31.92
2023-05-19T01:50:06.775Z,31.91
2023-05-19T01:51:06.820Z,31.91
2023-05-19T01:52:06.734Z,31.90
2023-05-19T01:53:06.742Z,31.90
2023-05-19T01:54:06.743Z,31.92
2023-05-19T01:55:06.722Z,31.91
2023-05-19T01:56:06.723Z,31.92
2023-05-19T01:57:06.725Z,31.92
2023-05-19T01:58:06.714Z,31.94
2023-05-19T01:59:06.703Z,31.92
2023-05-19T02:00:06.690Z,31.93
2023-05-19T02:01:06.729Z,31.92
2023-05-19T02:02:06.689Z,31.92
2023-05-19T02:03:06.705Z,31.92
2023-05-19T02:04:06.693Z,31.93
2023-05-19T02:05:06.652Z,31.92
2023-05-19T02:06:06.647Z,31.91
2023-05-19T02:07:06.641Z,31.91
2023-05-19T02:08:06.637Z,31.91
2023-05-19T02:09:06.635Z,31.91
2023-05-19T02:10:06.619Z,31.88
2023-05-19T02:11:06.714Z,31.90
2023-05-19T02:12:06.602Z,31.90
2023-05-19T02:13:06.591Z,31.93
2023-05-19T02:14:06.595Z,31.93
2023-05-19T02:15:06.630Z,31.95
2023-05-19T02:16:06.663Z,31.93
2023-05-19T02:17:06.570Z,31.92
2023-05-19T02:18:06.618Z,31.94
2023-05-19T02:19:06.619Z,31.95
2023-05-19T02:20:06.547Z,31.94
2023-05-19T02:21:06.604Z,31.94
2023-05-19T02:22:06.667Z,31.93
2023-05-19T02:23:06.728Z,31.96
2023-05-19T02:24:06.795Z,31.96
2023-05-19T02:25:06.850Z,31.96
2023-05-19T02:26:06.901Z,31.96
2023-05-19T02:27:06.963Z,31.95
2023-05-19T02:28:07.026Z,31.96
2023-05-19T02:29:07.082Z,31.95
2023-05-19T02:30:07.147Z,31.98
2023-05-19T02:31:07.180Z,31.98
2023-05-19T02:32:07.336Z,31.97
2023-05-19T02:33:07.422Z,31.98
2023-05-19T02:34:07.390Z,31.99
2023-05-19T02:35:07.437Z,32.00
2023-05-19T02:36:07.525Z,31.98
2023-05-19T02:37:07.584Z,31.99
2023-05-19T02:38:07.640Z,32.00
2023-05-19T02:39:07.679Z,32.01
2023-05-19T02:40:07.751Z,32.00
2023-05-19T02:41:07.819Z,32.00
2023-05-19T02:42:07.863Z,31.99
2023-05-19T02:43:07.941Z,32.02
2023-05-19T02:44:07.993Z,32.01
2023-05-19T02:45:08.056Z,32.02
2023-05-19T02:46:08.192Z,32.02
2023-05-19T02:47:08.167Z,32.03
2023-05-19T02:48:08.304Z,32.03
2023-05-19T02:49:08.324Z,32.03
2023-05-19T02:50:08.345Z,32.04
2023-05-19T02:51:08.418Z,32.03
2023-05-19T02:52:08.461Z,32.03
2023-05-19T02:53:08.529Z,32.04
2023-05-19T02:54:08.597Z,32.05
2023-05-19T02:55:08.771Z,32.07
2023-05-19T02:56:08.720Z,32.05
2023-05-19T02:57:08.790Z,32.06
2023-05-19T02:58:08.836Z,32.04
2023-05-19T02:59:08.921Z,32.07
2023-05-19T03:00:09.001Z,32.05
2023-05-19T03:01:09.054Z,32.05
2023-05-19T03:02:09.104Z,32.05
2023-05-19T03:03:09.234Z,32.07
2023-05-19T03:04:09.480Z,32.07
2023-05-19T03:05:09.311Z,32.09
2023-05-19T03:06:09.391Z,32.07
2023-05-19T03:07:09.424Z,32.07
2023-05-19T03:08:09.473Z,32.09
2023-05-19T03:09:09.534Z,32.10
2023-05-19T03:10:09.612Z,32.11
2023-05-19T03:11:09.665Z,32.11
2023-05-19T03:12:09.728Z,32.10
2023-05-19T03:13:09.798Z,32.10
2023-05-19T03:14:09.925Z,32.12
2023-05-19T03:15:09.912Z,32.10
2023-05-19T03:16:10.023Z,32.12
2023-05-19T03:17:10.165Z,32.10
2023-05-19T03:18:10.276Z,32.12
2023-05-19T03:19:10.244Z,32.10
2023-05-19T03:20:10.238Z,32.10
2023-05-19T03:21:10.317Z,32.12
2023-05-19T03:22:10.364Z,32.11
2023-05-19T03:23:10.427Z,32.13
2023-05-19T03:24:10.489Z,32.12
2023-05-19T03:25:10.553Z,32.13
2023-05-19T03:26:10.593Z,32.11
2023-05-19T03:27:10.651Z,32.13
2023-05-19T03:28:10.714Z,32.14
2023-05-19T03:29:10.784Z,32.13
2023-05-19T03:30:10.832Z,32.16
2023-05-19T03:31:10.899Z,32.17
2023-05-19T03:32:10.974Z,32.17
2023-05-19T03:33:11.199Z,32.14
2023-05-19T03:34:11.079Z,32.13
2023-05-19T03:35:11.162Z,32.15
2023-05-19T03:36:11.192Z,32.16
2023-05-19T03:37:11.256Z,32.16
2023-05-19T03:38:11.329Z,32.16
2023-05-19T03:39:11.483Z,32.17
2023-05-19T03:40:11.465Z,32.18
2023-05-19T03:41:11.506Z,32.17
2023-05-19T03:42:11.584Z,32.17
2023-05-19T03:43:11.632Z,32.17
2023-05-19T03:44:11.696Z,32.17
2023-05-19T03:45:11.749Z,32.15
2023-05-19T03:46:11.877Z,32.17
2023-05-19T03:47:11.883Z,32.15
2023-05-19T03:48:11.990Z,32.14
2023-05-19T03:49:12.024Z,32.16
2023-05-19T03:50:12.078Z,32.16
2023-05-19T03:51:12.130Z,32.17
2023-05-19T03:52:12.190Z,32.16
2023-05-19T03:53:12.247Z,32.18
2023-05-19T03:54:12.295Z,32.16
2023-05-19T03:55:12.366Z,32.17
2023-05-19T03:56:12.416Z,32.16
2023-05-19T03:57:12.495Z,32.17
2023-05-19T03:58:12.541Z,32.18
2023-05-19T03:59:12.600Z,32.17
2023-05-19T04:00:12.690Z,32.15
2023-05-19T04:01:12.838Z,32.17
2023-05-19T04:02:12.847Z,32.17
2023-05-19T04:03:13.020Z,32.16
2023-05-19T04:04:12.932Z,32.17
2023-05-19T04:05:12.980Z,32.17
2023-05-19T04:06:13.068Z,32.18
2023-05-19T04:07:13.091Z,32.17
2023-05-19T04:08:13.156Z,32.17
2023-05-19T04:09:13.222Z,32.19
2023-05-19T04:10:13.267Z,32.17
2023-05-19T04:11:13.338Z,32.18
2023-05-19T04:12:13.430Z,32.18
2023-05-19T04:13:13.461Z,32.16
2023-05-19T04:14:13.539Z,32.17
2023-05-19T04:15:13.637Z,32.15
2023-05-19T04:16:13.674Z,32.16
2023-05-19T04:17:13.719Z,32.16
2023-05-19T04:18:13.836Z,32.18
2023-05-19T04:19:13.894Z,32.16
2023-05-19T04:20:13.891Z,32.17
2023-05-19T04:21:13.986Z,32.17
2023-05-19T04:22:14.005Z,32.18
2023-05-19T04:23:14.173Z,32.17
2023-05-19T04:24:14.142Z,32.16
2023-05-19T04:25:14.205Z,32.15
2023-05-19T04:26:14.260Z,32.16
2023-05-19T04:27:14.317Z,32.15
2023-05-19T04:28:14.377Z,32.15
2023-05-19T04:29:14.451Z,32.16
2023-05-19T04:30:16.113Z,32.16
2023-05-19T04:31:14.542Z,32.17
2023-05-19T04:32:14.496Z,32.15
2023-05-19T04:33:14.474Z,32.16
2023-05-19T04:34:14.488Z,32.16
2023-05-19T04:35:14.477Z,32.15
2023-05-19T04:36:14.481Z,32.17
2023-05-19T04:37:14.449Z,32.14
2023-05-19T04:38:14.466Z,32.13
2023-05-19T04:39:14.448Z,32.15
2023-05-19T04:40:14.454Z,32.13
2023-05-19T04:41:14.446Z,32.12
2023-05-19T04:42:14.416Z,32.14
2023-05-19T04:43:14.423Z,32.15
2023-05-19T04:44:14.425Z,32.14
2023-05-19T04:45:14.399Z,32.14
2023-05-19T04:46:14.560Z,32.13
2023-05-19T04:47:14.406Z,32.11
2023-05-19T04:48:14.383Z,32.12
2023-05-19T04:49:14.364Z,32.10
2023-05-19T04:50:14.355Z,32.10
2023-05-19T04:51:14.516Z,32.11
2023-05-19T04:52:14.346Z,32.08
2023-05-19T04:53:14.335Z,32.05
2023-05-19T04:54:14.355Z,32.00
2023-05-19T04:55:14.327Z,31.99
2023-05-19T04:56:14.317Z,31.96
2023-05-19T04:57:14.316Z,31.92
2023-05-19T04:58:14.315Z,31.91
2023-05-19T04:59:14.304Z,31.88
2023-05-19T05:00:14.299Z,31.85
2023-05-19T05:01:14.300Z,31.86
2023-05-19T05:02:14.404Z,31.85
2023-05-19T05:03:14.348Z,31.89
2023-05-19T05:04:14.319Z,31.90
2023-05-19T05:05:14.252Z,31.88
2023-05-19T05:06:14.350Z,31.86
2023-05-19T05:07:14.244Z,31.85
2023-05-19T05:08:14.342Z,31.84
2023-05-19T05:09:14.231Z,31.83
2023-05-19T05:10:14.238Z,31.83
2023-05-19T05:11:14.312Z,31.84
2023-05-19T05:12:14.341Z,31.87
2023-05-19T05:13:14.387Z,31.86
2023-05-19T05:14:14.418Z,31.86
2023-05-19T05:15:14.513Z,31.82
2023-05-19T05:16:14.586Z,31.84
2023-05-19T05:17:14.573Z,31.85
2023-05-19T05:18:14.593Z,31.86
2023-05-19T05:19:14.725Z,31.84
2023-05-19T05:20:14.691Z,31.85
2023-05-19T05:21:14.751Z,31.84
2023-05-19T05:22:14.913Z,31.85
2023-05-19T05:23:14.844Z,31.85
2023-05-19T05:24:14.870Z,31.87
2023-05-19T05:25:14.900Z,31.85
2023-05-19T05:26:14.968Z,31.84
2023-05-19T05:27:14.994Z,31.84
2023-05-19T05:28:15.044Z,31.85
2023-05-19T05:29:15.089Z,31.83
2023-05-19T05:30:15.240Z,31.83
2023-05-19T05:31:15.204Z,31.83
2023-05-19T05:32:15.247Z,31.83
2023-05-19T05:33:15.394Z,31.83
2023-05-19T05:34:15.344Z,31.81
2023-05-19T05:35:15.387Z,31.80
2023-05-19T05:36:15.438Z,31.83
2023-05-19T05:37:15.549Z,31.83
2023-05-19T05:38:15.520Z,31.80
2023-05-19T05:39:15.584Z,31.82
2023-05-19T05:40:15.606Z,31.79
2023-05-19T05:41:15.662Z,31.80
2023-05-19T05:42:15.706Z,31.80
2023-05-19T05:43:15.746Z,31.80
2023-05-19T05:44:15.783Z,31.81
2023-05-19T05:45:15.848Z,31.79
2023-05-19T05:46:15.919Z,31.79
2023-05-19T05:47:15.934Z,31.78
2023-05-19T05:48:16.068Z,31.77
2023-05-19T05:49:16.015Z,31.76
2023-05-19T05:50:16.057Z,31.79
2023-05-19T05:51:16.088Z,31.78
2023-05-19T05:52:16.124Z,31.76
2023-05-19T05:53:16.250Z,31.76
2023-05-19T05:54:16.223Z,31.76
2023-05-19T05:55:16.261Z,31.77
2023-05-19T05:56:16.282Z,31.75
2023-05-19T05:57:16.331Z,31.74
2023-05-19T05:58:16.373Z,31.72
2023-05-19T05:59:16.396Z,31.75
2023-05-19T06:00:16.450Z,31.72
2023-05-19T06:01:16.469Z,31.74
2023-05-19T06:02:16.539Z,31.74
2023-05-19T06:03:16.596Z,31.77
2023-05-19T06:04:16.613Z,31.73
2023-05-19T06:05:16.690Z,31.73
2023-05-19T06:06:16.676Z,31.72
2023-05-19T06:07:16.724Z,31.77
2023-05-19T06:08:16.765Z,31.77
2023-05-19T06:09:16.780Z,31.74
2023-05-19T06:10:16.830Z,31.75
2023-05-19T06:11:16.855Z,31.77
2023-05-19T06:12:16.899Z,31.78
2023-05-19T06:13:16.967Z,31.82
2023-05-19T06:14:16.979Z,31.76
2023-05-19T06:15:17.111Z,31.78
2023-05-19T06:16:17.164Z,31.79
2023-05-19T06:17:17.110Z,31.77
2023-05-19T06:18:17.134Z,31.78
2023-05-19T06:19:17.214Z,31.79
2023-05-19T06:20:17.208Z,31.78
2023-05-19T06:21:17.246Z,31.76
2023-05-19T06:22:17.265Z,31.76
2023-05-19T06:23:17.298Z,31.79
2023-05-19T06:24:17.326Z,31.73
2023-05-19T06:25:17.381Z,31.72
2023-05-19T06:26:17.421Z,31.72
2023-05-19T06:27:17.436Z,31.72
2023-05-19T06:28:17.476Z,31.74
2023-05-19T06:29:17.515Z,31.73
2023-05-19T06:30:17.549Z,31.73
2023-05-19T06:31:17.630Z,31.74
2023-05-19T06:32:17.607Z,31.72
2023-05-19T06:33:17.631Z,31.76
2023-05-19T06:34:17.721Z,31.75
2023-05-19T06:35:17.681Z,31.74
2023-05-19T06:36:17.731Z,31.72
2023-05-19T06:37:17.854Z,31.72
2023-05-19T06:38:17.798Z,31.73
2023-05-19T06:39:17.811Z,31.73
2023-05-19T06:40:17.856Z,31.75
2023-05-19T06:41:17.887Z,31.73
2023-05-19T06:42:17.922Z,31.74
2023-05-19T06:43:17.936Z,31.72
2023-05-19T06:44:20.450Z,31.70
2023-05-19T06:45:17.973Z,31.70
2023-05-19T06:46:18.072Z,31.70
2023-05-19T06:47:17.959Z,31.68
2023-05-19T06:48:18.015Z,31.67
2023-05-19T06:49:17.929Z,31.66
2023-05-19T06:50:17.926Z,31.68
2023-05-19T06:51:17.930Z,31.64
2023-05-19T06:52:17.928Z,31.67
2023-05-19T06:53:17.923Z,31.69
2023-05-19T06:54:17.903Z,31.67
2023-05-19T06:55:17.917Z,31.69
2023-05-19T06:56:17.901Z,31.67
2023-05-19T06:57:17.903Z,31.68
2023-05-19T06:58:17.890Z,31.68
2023-05-19T06:59:17.960Z,31.68
2023-05-19T07:00:19.365Z,31.70
2023-05-19T07:01:17.906Z,31.70
2023-05-19T07:02:17.905Z,31.70
2023-05-19T07:03:18.029Z,31.68
2023-05-19T07:04:17.826Z,31.69
2023-05-19T07:05:17.825Z,31.69
2023-05-19T07:06:17.829Z,31.70
2023-05-19T07:07:17.818Z,31.71
2023-05-19T07:08:17.798Z,31.67
2023-05-19T07:09:17.794Z,31.69
2023-05-19T07:10:17.784Z,31.70
2023-05-19T07:11:17.785Z,31.71
2023-05-19T07:12:17.787Z,31.73
2023-05-19T07:13:17.769Z,31.71
2023-05-19T07:14:17.775Z,31.71
2023-05-19T07:15:17.768Z,31.72
2023-05-19T07:16:17.797Z,31.69
2023-05-19T07:17:17.739Z,31.70
2023-05-19T07:18:17.746Z,31.71
2023-05-19T07:19:17.764Z,31.71
2023-05-19T07:20:17.740Z,31.70
2023-05-19T07:21:17.806Z,31.70
2023-05-19T07:22:17.709Z,31.68
2023-05-19T07:23:17.706Z,31.70
2023-05-19T07:24:17.706Z,31.68
2023-05-19T07:25:17.703Z,31.67
2023-05-19T07:26:17.689Z,31.67
2023-05-19T07:27:17.686Z,31.68
2023-05-19T07:28:17.660Z,31.67
2023-05-19T07:29:17.656Z,31.66
2023-05-19T07:30:17.774Z,31.67
2023-05-19T07:31:17.743Z,31.64
2023-05-19T07:32:17.759Z,31.69
2023-05-19T07:33:17.647Z,31.67
2023-05-19T07:34:17.628Z,31.67
2023-05-19T07:35:17.632Z,31.68
2023-05-19T07:36:17.627Z,31.67
2023-05-19T07:37:17.616Z,31.68
2023-05-19T07:38:17.592Z,31.67
2023-05-19T07:39:17.666Z,31.66
2023-05-19T07:40:17.589Z,31.65
2023-05-19T07:41:17.584Z,31.67
2023-05-19T07:42:17.560Z,31.67
2023-05-19T07:43:17.576Z,31.66
2023-05-19T07:44:17.648Z,31.65
2023-05-19T07:45:17.549Z,31.66
2023-05-19T07:46:17.655Z,31.65
2023-05-19T07:47:17.530Z,31.64
2023-05-19T07:48:17.628Z,31.65
2023-05-19T07:49:17.513Z,31.65
2023-05-19T07:50:17.520Z,31.67
2023-05-19T07:51:17.505Z,31.64
2023-05-19T07:52:17.510Z,31.64
2023-05-19T07:53:17.497Z,31.62
2023-05-19T07:54:17.498Z,31.61
2023-05-19T07:55:17.500Z,31.60
2023-05-19T07:56:17.548Z,31.59
2023-05-19T07:57:17.558Z,31.60
2023-05-19T07:58:17.578Z,31.59
2023-05-19T07:59:17.616Z,31.58
2023-05-19T08:00:17.636Z,31.59
2023-05-19T08:01:17.643Z,31.61
2023-05-19T08:02:17.681Z,31.61
2023-05-19T08:03:17.832Z,31.59
2023-05-19T08:04:17.857Z,31.59
2023-05-19T08:05:17.733Z,31.59
2023-05-19T08:06:17.839Z,31.59
2023-05-19T08:07:17.777Z,31.58
2023-05-19T08:08:17.793Z,31.57
2023-05-19T08:09:17.826Z,31.59
2023-05-19T08:10:17.864Z,31.58
2023-05-19T08:11:17.848Z,31.56
2023-05-19T08:12:17.865Z,31.56
2023-05-19T08:13:17.882Z,31.56
2023-05-19T08:14:17.938Z,31.55
2023-05-19T08:15:17.922Z,31.53
2023-05-19T08:16:17.968Z,31.51
2023-05-19T08:17:17.940Z,31.52
2023-05-19T08:18:17.981Z,31.47
2023-05-19T08:19:18.064Z,31.51
2023-05-19T08:20:18.007Z,31.48
2023-05-19T08:21:18.006Z,31.47
2023-05-19T08:22:18.011Z,31.47
2023-05-19T08:23:18.032Z,31.48
2023-05-19T08:24:18.019Z,31.47
2023-05-19T08:25:18.050Z,31.48
2023-05-19T08:26:18.052Z,31.50
2023-05-19T08:27:18.081Z,31.48
2023-05-19T08:28:18.156Z,31.48
2023-05-19T08:29:18.087Z,31.51
2023-05-19T08:30:18.103Z,31.49
2023-05-19T08:31:18.131Z,31.52
2023-05-19T08:32:18.125Z,31.52
2023-05-19T08:33:18.134Z,31.53
2023-05-19T08:34:18.231Z,31.53
2023-05-19T08:35:18.165Z,31.53
2023-05-19T08:36:18.158Z,31.53
2023-05-19T08:37:18.180Z,31.53
2023-05-19T08:38:18.185Z,31.54
2023-05-19T08:39:18.188Z,31.53
2023-05-19T08:40:18.225Z,31.55
2023-05-19T08:41:18.241Z,31.54
2023-05-19T08:42:18.242Z,31.54
2023-05-19T08:43:18.257Z,31.56
2023-05-19T08:44:19.108Z,31.55
2023-05-19T08:45:18.266Z,31.55
2023-05-19T08:46:18.330Z,31.55
2023-05-19T08:47:18.303Z,31.53
2023-05-19T08:48:18.299Z,31.55
2023-05-19T08:49:18.323Z,31.54
2023-05-19T08:50:18.416Z,31.55
2023-05-19T08:51:18.349Z,31.55
2023-05-19T08:52:18.349Z,31.54
2023-05-19T08:53:31.837Z,31.53
2023-05-19T08:54:19.334Z,31.54
2023-05-19T08:55:18.345Z,31.55
2023-05-19T08:56:18.330Z,31.54
2023-05-19T08:57:18.320Z,31.56
2023-05-19T08:58:18.317Z,31.54
2023-05-19T08:59:18.313Z,31.54
2023-05-19T09:00:18.285Z,31.53
2023-05-19T09:01:18.331Z,31.52
2023-05-19T09:02:18.287Z,31.53
2023-05-19T09:03:23.406Z,31.53
2023-05-19T09:04:19.301Z,31.54
2023-05-19T09:05:18.308Z,31.53
2023-05-19T09:06:18.255Z,31.55
2023-05-19T09:07:18.238Z,31.55
2023-05-19T09:08:18.230Z,31.53
2023-05-19T09:09:18.224Z,31.51
2023-05-19T09:10:18.208Z,31.55
2023-05-19T09:11:18.212Z,31.54
2023-05-19T09:12:18.306Z,31.55
2023-05-19T09:13:18.187Z,31.55
2023-05-19T09:14:18.200Z,31.52
2023-05-19T09:15:18.186Z,31.55
2023-05-19T09:16:18.206Z,31.55
2023-05-19T09:17:18.164Z,31.54
2023-05-19T09:18:18.163Z,31.53
2023-05-19T09:19:18.222Z,31.56
2023-05-19T09:20:18.144Z,31.57
2023-05-19T09:21:18.132Z,31.58
2023-05-19T09:22:18.203Z,31.55
2023-05-19T09:23:18.119Z,31.56
2023-05-19T09:24:18.166Z,31.56
2023-05-19T09:25:18.146Z,31.58
2023-05-19T09:26:18.123Z,31.57
2023-05-19T09:27:18.118Z,31.58
2023-05-19T09:28:18.101Z,31.57
2023-05-19T09:29:18.107Z,31.57
2023-05-19T09:30:18.101Z,31.58
2023-05-19T09:31:18.082Z,31.55
2023-05-19T09:32:18.124Z,31.57
2023-05-19T09:33:18.067Z,31.59
2023-05-19T09:34:18.045Z,31.58
2023-05-19T09:35:18.051Z,31.58
2023-05-19T09:36:18.052Z,31.60
2023-05-19T09:37:18.051Z,31.60
2023-05-19T09:38:18.114Z,31.60
2023-05-19T09:39:18.026Z,31.63
2023-05-19T09:40:18.051Z,31.62
2023-05-19T09:41:17.998Z,31.62
2023-05-19T09:42:18.000Z,31.61
2023-05-19T09:43:17.980Z,31.63
2023-05-19T09:44:17.987Z,31.64
2023-05-19T09:45:17.979Z,31.66
2023-05-19T09:46:17.978Z,31.65
2023-05-19T09:47:17.947Z,31.61
2023-05-19T09:48:17.962Z,31.61
2023-05-19T09:49:17.941Z,31.62
2023-05-19T09:50:17.999Z,31.62
2023-05-19T09:51:17.951Z,31.60
2023-05-19T09:52:17.973Z,31.59
2023-05-19T09:53:17.949Z,31.62
2023-05-19T09:54:17.941Z,31.62
2023-05-19T09:55:17.946Z,31.64
2023-05-19T09:56:17.940Z,31.64
2023-05-19T09:57:17.952Z,31.67
2023-05-19T09:58:17.932Z,31.64
2023-05-19T09:59:17.925Z,31.66
2023-05-19T10:00:18.017Z,31.65
2023-05-19T10:01:17.953Z,31.67
2023-05-19T10:02:17.923Z,31.67
2023-05-19T10:03:17.914Z,31.66
2023-05-19T10:04:17.904Z,31.67
2023-05-19T10:05:18.030Z,31.68
2023-05-19T10:06:17.909Z,31.71
2023-05-19T10:07:17.942Z,31.67
2023-05-19T10:08:17.903Z,31.71
2023-05-19T10:09:17.878Z,31.70
2023-05-19T10:10:17.890Z,31.72
2023-05-19T10:11:17.889Z,31.70
2023-05-19T10:12:17.875Z,31.73
2023-05-19T10:13:17.874Z,31.71
2023-05-19T10:14:17.889Z,31.72
2023-05-19T10:15:17.874Z,31.72
2023-05-19T10:16:17.876Z,31.73
2023-05-19T10:17:17.878Z,31.72
2023-05-19T10:18:17.857Z,31.74
2023-05-19T10:19:17.906Z,31.74
2023-05-19T10:20:17.856Z,31.75
2023-05-19T10:21:17.845Z,31.72
2023-05-19T10:22:17.846Z,31.74
2023-05-19T10:23:17.849Z,31.75
2023-05-19T10:24:17.838Z,31.73
2023-05-19T10:25:17.840Z,31.76
2023-05-19T10:26:17.812Z,31.79
2023-05-19T10:27:17.814Z,31.74
2023-05-19T10:28:17.807Z,31.76
2023-05-19T10:29:17.801Z,31.77
2023-05-19T10:30:17.830Z,31.75
2023-05-19T10:31:17.811Z,31.75
2023-05-19T10:32:17.871Z,31.78
2023-05-19T10:33:17.862Z,31.74
2023-05-19T10:34:17.798Z,31.76
2023-05-19T10:35:17.792Z,31.76
2023-05-19T10:36:17.802Z,31.79
2023-05-19T10:37:17.790Z,31.78
2023-05-19T10:38:17.790Z,31.76
2023-05-19T10:39:17.790Z,31.77
2023-05-19T10:40:17.775Z,31.79
2023-05-19T10:41:17.780Z,31.79
2023-05-19T10:42:17.783Z,31.81
2023-05-19T10:43:17.775Z,31.81
2023-05-19T10:44:17.762Z,31.79
2023-05-19T10:45:17.759Z,31.80
2023-05-19T10:46:17.839Z,31.82
2023-05-19T10:47:17.866Z,31.82
2023-05-19T10:48:17.809Z,31.85
2023-05-19T10:49:17.767Z,31.83
2023-05-19T10:50:17.767Z,31.84
2023-05-19T10:51:17.761Z,31.84
2023-05-19T10:52:17.798Z,31.83
2023-05-19T10:53:17.757Z,31.85
2023-05-19T10:54:17.760Z,31.84
2023-05-19T10:55:17.969Z,31.85
2023-05-19T10:56:17.770Z,31.85
2023-05-19T10:57:17.798Z,31.85
2023-05-19T10:58:17.765Z,31.83
2023-05-19T10:59:17.767Z,31.86
2023-05-19T11:00:17.763Z,31.86
2023-05-19T11:01:17.809Z,31.87
2023-05-19T11:02:17.786Z,31.82
2023-05-19T11:03:17.747Z,31.87
2023-05-19T11:04:17.768Z,31.85
2023-05-19T11:05:17.755Z,31.84
2023-05-19T11:06:17.754Z,31.85
2023-05-19T11:07:17.757Z,31.85
2023-05-19T11:08:17.731Z,31.85
2023-05-19T11:09:17.949Z,31.86
2023-05-19T11:10:17.722Z,31.84
2023-05-19T11:11:17.736Z,31.84
2023-05-19T11:12:17.723Z,31.84
2023-05-19T11:13:17.727Z,31.85
2023-05-19T11:14:17.719Z,31.84
2023-05-19T11:15:17.736Z,31.83
2023-05-19T11:16:17.730Z,31.83
2023-05-19T11:17:17.695Z,31.84
2023-05-19T11:18:17.711Z,31.85
2023-05-19T11:19:17.753Z,31.82
2023-05-19T11:20:17.705Z,31.82
2023-05-19T11:21:17.721Z,31.82
2023-05-19T11:22:17.713Z,31.85
2023-05-19T11:23:17.722Z,31.85
2023-05-19T11:24:17.693Z,31.83
2023-05-19T11:25:17.681Z,31.84
2023-05-19T11:26:17.666Z,31.85
2023-05-19T11:27:17.684Z,31.86
2023-05-19T11:28:17.682Z,31.87
2023-05-19T11:29:17.678Z,31.88
2023-05-19T11:30:17.778Z,31.86
2023-05-19T11:31:17.668Z,31.88
2023-05-19T11:32:17.774Z,31.88
2023-05-19T11:33:17.708Z,31.87
2023-05-19T11:34:17.650Z,31.91
2023-05-19T11:35:17.648Z,31.89
2023-05-19T11:36:17.673Z,31.88
2023-05-19T11:37:17.654Z,31.90
2023-05-19T11:38:17.654Z,31.91
2023-05-19T11:39:17.658Z,31.90
2023-05-19T11:40:17.651Z,31.91
2023-05-19T11:41:20.137Z,31.94
2023-05-19T11:42:17.630Z,31.94
2023-05-19T11:43:17.630Z,31.96
2023-05-19T11:44:17.620Z,31.95
2023-05-19T11:45:17.602Z,31.96
2023-05-19T11:46:17.643Z,31.95
2023-05-19T11:47:17.602Z,31.97
2023-05-19T11:48:17.650Z,31.99
2023-05-19T11:49:17.585Z,31.97
2023-05-19T11:50:17.572Z,32.00
2023-05-19T11:51:17.555Z,31.98
2023-05-19T11:52:17.569Z,31.99
2023-05-19T11:53:17.549Z,31.98
2023-05-19T11:54:17.545Z,31.99
2023-05-19T11:55:17.524Z,31.99
2023-05-19T11:56:17.533Z,32.04
2023-05-19T11:57:17.527Z,32.05
2023-05-19T11:58:17.634Z,32.03
2023-05-19T11:59:17.492Z,32.03
2023-05-19T12:00:17.482Z,32.05
2023-05-19T12:01:17.476Z,32.04
2023-05-19T12:02:17.545Z,32.05
2023-05-19T12:03:17.765Z,32.06
2023-05-19T12:04:17.467Z,32.07
2023-05-19T12:05:17.515Z,32.07
2023-05-19T12:06:17.565Z,32.10
2023-05-19T12:07:17.446Z,32.10
2023-05-19T12:09:17.434Z,32.11
2023-05-19T12:10:17.420Z,32.10
2023-05-19T12:11:18.175Z,32.11
2023-05-19T12:12:17.452Z,32.14
2023-05-19T12:13:17.382Z,32.11
2023-05-19T12:14:17.386Z,32.12
2023-05-19T12:15:17.369Z,32.14
2023-05-19T12:16:17.404Z,32.15
2023-05-19T12:17:17.353Z,32.13
2023-05-19T12:18:17.355Z,32.12
2023-05-19T12:19:17.406Z,32.16
2023-05-19T12:20:17.345Z,32.15
2023-05-19T12:21:17.335Z,32.16
2023-05-19T12:22:17.363Z,32.19
2023-05-19T12:23:17.315Z,32.20
2023-05-19T12:24:17.295Z,32.18
2023-05-19T12:25:17.301Z,32.21
2023-05-19T12:26:17.301Z,32.24
2023-05-19T12:27:17.299Z,32.23
2023-05-19T12:28:17.284Z,32.24
2023-05-19T12:29:17.267Z,32.25
2023-05-19T12:30:17.271Z,32.26
2023-05-19T12:31:17.285Z,32.27
2023-05-19T12:32:17.260Z,32.30
2023-05-19T12:33:17.251Z,32.29
2023-05-19T12:34:17.228Z,32.31
2023-05-19T12:35:17.234Z,32.32
2023-05-19T12:36:17.211Z,32.34
2023-05-19T12:37:17.210Z,32.37
2023-05-19T12:38:17.212Z,32.36
2023-05-19T12:39:17.696Z,32.35
2023-05-19T12:40:17.179Z,32.37
2023-05-19T12:41:17.183Z,32.39
2023-05-19T12:42:17.192Z,32.41
2023-05-19T12:43:17.166Z,32.42
2023-05-19T12:44:17.167Z,32.43
2023-05-19T12:45:17.164Z,32.44
2023-05-19T12:46:17.161Z,32.44
2023-05-19T12:47:17.157Z,32.45
2023-05-19T12:48:17.179Z,32.48
2023-05-19T12:49:17.132Z,32.49
2023-05-19T12:50:17.146Z,32.50
2023-05-19T12:51:17.119Z,32.52
2023-05-19T12:52:17.095Z,32.51
2023-05-19T12:53:17.095Z,32.56